Snav Lazio — IBUH — position and weather

sailwx.info

Track history (hours):
 
Tides and Currents Weather Stations Pressure Air Temp Water Temp Dewpoint Dewpoint Depression Visibility Wind Speed Wind Dir Waves Ship Positions

Snav Lazio

Last reported at 2014-Oct-24 20:06 UTC. Time now 2014-Oct-25 19:07 UTC.
Position N 38°36' E 013°33'.

Length 162 m; draft 6 m.

Type: Passenger vessel. MMSI: 247163100.

Date/timePositionNaut miles runAvg speedWind from/ knotsBaromVisibWave heightAir tempDewpointWater temp
2014-Oct-24 20:06N 38°36' E 013°33'917.2
2014-Oct-24 19:33N 38°26' E 013°30'1717.0
2014-Oct-24 18:33N 38°10' E 013°26'4 3.4
2014-Oct-24 17:31N 38°08' E 013°22'0 0.0
2014-Oct-24 16:31N 38°08' E 013°22'0 0.0
2014-Oct-24 15:31N 38°08' E 013°22'0 0.0
2014-Oct-24 14:31N 38°08' E 013°22'0 0.0
2014-Oct-24 13:31N 38°08' E 013°22'0 0.0
2014-Oct-24 12:31N 38°08' E 013°22'0 0.0
2014-Oct-24 11:31N 38°08' E 013°22'0 0.0
2014-Oct-24 10:31N 38°08' E 013°22'0 0.0
2014-Oct-24 09:31N 38°08' E 013°22'0 0.0
2014-Oct-24 08:31N 38°08' E 013°22'0 0.0
2014-Oct-24 07:31N 38°08' E 013°22'0 0.0
2014-Oct-24 06:31N 38°08' E 013°22'0 0.0
2014-Oct-24 05:33N 38°08' E 013°22'0 0.3
2014-Oct-24 04:33N 38°08' E 013°22'1212.0
2014-Oct-24 03:33N 38°19' E 013°29'1717.4
2014-Oct-24 02:33N 38°36' E 013°33'1 0.0
2014-Oct-22 20:33N 38°35' E 013°33'1616.1
2014-Oct-22 19:33N 38°19' E 013°29'1312.6
2014-Oct-22 18:33N 38°08' E 013°22'0 0.3
2014-Oct-22 17:32N 38°08' E 013°22'0 0.0
2014-Oct-22 16:32N 38°08' E 013°22'0 0.0
2014-Oct-22 15:32N 38°08' E 013°22'0 0.0
2014-Oct-22 14:32N 38°08' E 013°22'0 0.0
2014-Oct-22 13:32N 38°08' E 013°22'0 0.0
2014-Oct-22 12:32N 38°08' E 013°22'0 0.0
2014-Oct-22 11:32N 38°08' E 013°22'0 0.0
2014-Oct-22 10:32N 38°08' E 013°22'0 0.0
2014-Oct-22 09:32N 38°08' E 013°22'0 0.0
2014-Oct-22 08:32N 38°08' E 013°22'0 0.0
2014-Oct-22 07:32N 38°08' E 013°22'0 0.0
2014-Oct-22 06:32N 38°08' E 013°22'0 0.0
2014-Oct-22 05:32N 38°08' E 013°22'0 0.0
2014-Oct-22 04:33N 38°08' E 013°22'1110.7
2014-Oct-22 03:33N 38°17' E 013°28'1717.5
2014-Oct-22 02:33N 38°34' E 013°34'5917.9
2014-Oct-21 23:16N 39°32' E 013°51'1316.7
2014-Oct-21 22:28N 39°45' E 013°54'82 3.0
2014-Oct-20 19:33N 38°25' E 013°30'1717.0
2014-Oct-20 18:34N 38°09' E 013°25'3 2.6
2014-Oct-20 17:31N 38°08' E 013°22'0 0.0
2014-Oct-20 16:31N 38°08' E 013°22'0 0.0
2014-Oct-20 15:31N 38°08' E 013°22'0 0.0
2014-Oct-20 14:31N 38°08' E 013°22'0 0.0
2014-Oct-20 13:31N 38°08' E 013°22'0 0.0
2014-Oct-20 12:31N 38°08' E 013°22'0 0.0
2014-Oct-20 11:28N 38°08' E 013°22'0 0.0
2014-Oct-20 10:31N 38°08' E 013°22'0 0.0
2014-Oct-20 09:31N 38°08' E 013°22'0 0.0
2014-Oct-20 08:31N 38°08' E 013°22'0 0.0
2014-Oct-20 07:31N 38°08' E 013°22'0 0.0
2014-Oct-20 06:31N 38°08' E 013°22'0 0.0
2014-Oct-20 05:31N 38°08' E 013°22'0 0.0
2014-Oct-20 04:31N 38°08' E 013°22'9 9.2
2014-Oct-20 03:33N 38°16' E 013°28'1918.5
2014-Oct-20 02:34N 38°34' E 013°33'6 0.2
2014-Oct-18 19:33N 38°28' E 013°30'1818.3
2014-Oct-18 18:33N 38°10' E 013°26'4 4.1
2014-Oct-18 17:33N 38°08' E 013°22'0 0.0
2014-Oct-18 16:33N 38°08' E 013°22'0 0.0
2014-Oct-18 15:33N 38°08' E 013°22'0 0.0
2014-Oct-18 14:33N 38°08' E 013°22'0 0.0
2014-Oct-18 13:33N 38°08' E 013°22'0 0.0
2014-Oct-18 12:33N 38°08' E 013°22'0 0.0
2014-Oct-18 11:33N 38°08' E 013°22'0 0.0
2014-Oct-18 10:33N 38°08' E 013°22'0 0.0
2014-Oct-18 09:33N 38°08' E 013°22'0 0.0
2014-Oct-18 08:30N 38°08' E 013°22'0 0.0
2014-Oct-18 07:33N 38°08' E 013°22'0 0.0
2014-Oct-18 06:33N 38°08' E 013°22'0 0.0
2014-Oct-18 05:33N 38°08' E 013°22'0 0.0
2014-Oct-18 04:33N 38°08' E 013°22'7 7.5
2014-Oct-18 03:34N 38°15' E 013°26'1818.4
2014-Oct-18 02:34N 38°33' E 013°31'1818.2
2014-Oct-18 01:33N 38°51' E 013°36'1818.5
2014-Oct-18 00:34N 39°09' E 013°41'4118.4
2014-Oct-17 22:21N 39°49' E 013°52'3818.3
2014-Oct-17 20:17N 40°25' E 014°04'141 5.1
2014-Oct-16 16:25N 38°08' E 013°22'0 0.0
2014-Oct-16 15:31N 38°08' E 013°22'0 0.0
2014-Oct-16 14:31N 38°08' E 013°22'0 0.0
2014-Oct-16 06:31N 38°08' E 013°22'0 0.0
2014-Oct-16 05:31N 38°08' E 013°22'0 0.1
2014-Oct-16 04:34N 38°08' E 013°22'1110.6
2014-Oct-16 03:34N 38°18' E 013°27'1717.2
2014-Oct-16 02:34N 38°35' E 013°31'1717.5
2014-Oct-16 01:34N 38°52' E 013°36'1817.8
2014-Oct-16 00:34N 39°09' E 013°41'1817.7
2014-Oct-15 23:33N 39°26' E 013°46'1817.6
2014-Oct-15 22:34N 39°43' E 013°51'1817.8
2014-Oct-15 21:34N 40°01' E 013°57'1817.9
2014-Oct-15 20:34N 40°18' E 014°02'1616.1
2014-Oct-15 19:33N 40°34' E 014°07'1716.6
2014-Oct-15 18:33N 40°49' E 014°16'2 0.4
2014-Oct-15 14:28N 40°50' E 014°15'4 0.4
2014-Oct-15 04:13N 40°46' E 014°15'1116.7
2014-Oct-15 03:33N 40°36' E 014°08'2316.9
2014-Oct-15 02:13N 40°14' E 014°01'2716.6
2014-Oct-15 00:33N 39°47' E 013°55'1716.9
2014-Oct-14 23:33N 39°31' E 013°51'1716.9
2014-Oct-14 22:33N 39°14' E 013°45'2016.8
2014-Oct-14 21:22N 38°55' E 013°40'1717.3
2014-Oct-14 20:23N 38°38' E 013°34'  
Track history (hours):
 
Tides and Currents Weather Stations Pressure Air Temp Water Temp Dewpoint Dewpoint Depression Visibility Wind Speed Wind Dir Waves Ship Positions

Snav Lazio

Last reported at 2014-Oct-24 20:06 UTC. Time now 2014-Oct-25 19:07 UTC.
Position N 38°36' E 013°33'.

Length 162 m; draft 6 m.

Type: Passenger vessel. MMSI: 247163100.

Date/timePositionNaut miles runAvg speedWind from/ knotsBaromVisibWave heightAir tempDewpointWater temp
2014-Oct-24 20:06N 38°36' E 013°33'917.2
2014-Oct-24 19:33N 38°26' E 013°30'1717.0
2014-Oct-24 18:33N 38°10' E 013°26'4 3.4
2014-Oct-24 17:31N 38°08' E 013°22'0 0.0
2014-Oct-24 16:31N 38°08' E 013°22'0 0.0
2014-Oct-24 15:31N 38°08' E 013°22'0 0.0
2014-Oct-24 14:31N 38°08' E 013°22'0 0.0
2014-Oct-24 13:31N 38°08' E 013°22'0 0.0
2014-Oct-24 12:31N 38°08' E 013°22'0 0.0
2014-Oct-24 11:31N 38°08' E 013°22'0 0.0
2014-Oct-24 10:31N 38°08' E 013°22'0 0.0
2014-Oct-24 09:31N 38°08' E 013°22'0 0.0
2014-Oct-24 08:31N 38°08' E 013°22'0 0.0
2014-Oct-24 07:31N 38°08' E 013°22'0 0.0
2014-Oct-24 06:31N 38°08' E 013°22'0 0.0
2014-Oct-24 05:33N 38°08' E 013°22'0 0.3
2014-Oct-24 04:33N 38°08' E 013°22'1212.0
2014-Oct-24 03:33N 38°19' E 013°29'1717.4
2014-Oct-24 02:33N 38°36' E 013°33'1 0.0
2014-Oct-22 20:33N 38°35' E 013°33'1616.1
2014-Oct-22 19:33N 38°19' E 013°29'1312.6
2014-Oct-22 18:33N 38°08' E 013°22'0 0.3
2014-Oct-22 17:32N 38°08' E 013°22'0 0.0
2014-Oct-22 16:32N 38°08' E 013°22'0 0.0
2014-Oct-22 15:32N 38°08' E 013°22'0 0.0
2014-Oct-22 14:32N 38°08' E 013°22'0 0.0
2014-Oct-22 13:32N 38°08' E 013°22'0 0.0
2014-Oct-22 12:32N 38°08' E 013°22'0 0.0
2014-Oct-22 11:32N 38°08' E 013°22'0 0.0
2014-Oct-22 10:32N 38°08' E 013°22'0 0.0
2014-Oct-22 09:32N 38°08' E 013°22'0 0.0
2014-Oct-22 08:32N 38°08' E 013°22'0 0.0
2014-Oct-22 07:32N 38°08' E 013°22'0 0.0
2014-Oct-22 06:32N 38°08' E 013°22'0 0.0
2014-Oct-22 05:32N 38°08' E 013°22'0 0.0
2014-Oct-22 04:33N 38°08' E 013°22'1110.7
2014-Oct-22 03:33N 38°17' E 013°28'1717.5
2014-Oct-22 02:33N 38°34' E 013°34'5917.9
2014-Oct-21 23:16N 39°32' E 013°51'1316.7
2014-Oct-21 22:28N 39°45' E 013°54'82 3.0
2014-Oct-20 19:33N 38°25' E 013°30'1717.0
2014-Oct-20 18:34N 38°09' E 013°25'3 2.6
2014-Oct-20 17:31N 38°08' E 013°22'0 0.0
2014-Oct-20 16:31N 38°08' E 013°22'0 0.0
2014-Oct-20 15:31N 38°08' E 013°22'0 0.0
2014-Oct-20 14:31N 38°08' E 013°22'0 0.0
2014-Oct-20 13:31N 38°08' E 013°22'0 0.0
2014-Oct-20 12:31N 38°08' E 013°22'0 0.0
2014-Oct-20 11:28N 38°08' E 013°22'0 0.0
2014-Oct-20 10:31N 38°08' E 013°22'0 0.0
2014-Oct-20 09:31N 38°08' E 013°22'0 0.0
2014-Oct-20 08:31N 38°08' E 013°22'0 0.0
2014-Oct-20 07:31N 38°08' E 013°22'0 0.0
2014-Oct-20 06:31N 38°08' E 013°22'0 0.0
2014-Oct-20 05:31N 38°08' E 013°22'0 0.0
2014-Oct-20 04:31N 38°08' E 013°22'9 9.2
2014-Oct-20 03:33N 38°16' E 013°28'1918.5
2014-Oct-20 02:34N 38°34' E 013°33'6 0.2
2014-Oct-18 19:33N 38°28' E 013°30'1818.3
2014-Oct-18 18:33N 38°10' E 013°26'4 4.1
2014-Oct-18 17:33N 38°08' E 013°22'0 0.0
2014-Oct-18 16:33N 38°08' E 013°22'0 0.0
2014-Oct-18 15:33N 38°08' E 013°22'0 0.0
2014-Oct-18 14:33N 38°08' E 013°22'0 0.0
2014-Oct-18 13:33N 38°08' E 013°22'0 0.0
2014-Oct-18 12:33N 38°08' E 013°22'0 0.0
2014-Oct-18 11:33N 38°08' E 013°22'0 0.0
2014-Oct-18 10:33N 38°08' E 013°22'0 0.0
2014-Oct-18 09:33N 38°08' E 013°22'0 0.0
2014-Oct-18 08:30N 38°08' E 013°22'0 0.0
2014-Oct-18 07:33N 38°08' E 013°22'0 0.0
2014-Oct-18 06:33N 38°08' E 013°22'0 0.0
2014-Oct-18 05:33N 38°08' E 013°22'0 0.0
2014-Oct-18 04:33N 38°08' E 013°22'7 7.5
2014-Oct-18 03:34N 38°15' E 013°26'1818.4
2014-Oct-18 02:34N 38°33' E 013°31'1818.2
2014-Oct-18 01:33N 38°51' E 013°36'1818.5
2014-Oct-18 00:34N 39°09' E 013°41'4118.4
2014-Oct-17 22:21N 39°49' E 013°52'3818.3
2014-Oct-17 20:17N 40°25' E 014°04'141 5.1
2014-Oct-16 16:25N 38°08' E 013°22'0 0.0
2014-Oct-16 15:31N 38°08' E 013°22'0 0.0
2014-Oct-16 14:31N 38°08' E 013°22'0 0.0
2014-Oct-16 06:31N 38°08' E 013°22'0 0.0
2014-Oct-16 05:31N 38°08' E 013°22'0 0.1
2014-Oct-16 04:34N 38°08' E 013°22'1110.6
2014-Oct-16 03:34N 38°18' E 013°27'1717.2
2014-Oct-16 02:34N 38°35' E 013°31'1717.5
2014-Oct-16 01:34N 38°52' E 013°36'1817.8
2014-Oct-16 00:34N 39°09' E 013°41'1817.7
2014-Oct-15 23:33N 39°26' E 013°46'1817.6
2014-Oct-15 22:34N 39°43' E 013°51'1817.8
2014-Oct-15 21:34N 40°01' E 013°57'1817.9
2014-Oct-15 20:34N 40°18' E 014°02'1616.1
2014-Oct-15 19:33N 40°34' E 014°07'1716.6
2014-Oct-15 18:33N 40°49' E 014°16'2 0.4
2014-Oct-15 14:28N 40°50' E 014°15'4 0.4
2014-Oct-15 04:13N 40°46' E 014°15'1116.7
2014-Oct-15 03:33N 40°36' E 014°08'2316.9
2014-Oct-15 02:13N 40°14' E 014°01'2716.6
2014-Oct-15 00:33N 39°47' E 013°55'1716.9
2014-Oct-14 23:33N 39°31' E 013°51'1716.9
2014-Oct-14 22:33N 39°14' E 013°45'2016.8
2014-Oct-14 21:22N 38°55' E 013°40'1717.3
2014-Oct-14 20:23N 38°38' E 013°34'  

Dump ship's entire track history